Time;durP1;ratioP1;P1;durP2;ratioP2;P2;SDS_P1;SDS_P2;PMS_P1;PMS_P2;Temp;Humidity;BMP_temperature;BMP_pressure;BME280_temperature;BME280_humidity;BME280_pressure;Samples;Min_cycle;Max_cycle;Signal;HPM_P1;HPM_P2
2022/03/21 00:00:01;;;;;;;12.80;10.37;;;15.50;29.80;;;;;;5026481;28;20483;-48
2022/03/21 00:02:33;;;;;;;10.57;9.20;;;15.20;29.10;;;;;;5027492;28;20454;-48
2022/03/21 00:05:11;;;;;;;10.90;9.17;;;15.20;29.70;;;;;;5029123;28;20446;-47
2022/03/21 00:07:39;;;;;;;15.17;9.80;;;15.00;28.90;;;;;;5025010;28;20477;-52
2022/03/21 00:10:10;;;;;;;12.07;10.20;;;15.10;30.00;;;;;;5029784;28;20510;-50
2022/03/21 00:12:40;;;;;;;12.10;8.80;;;15.20;30.00;;;;;;5026921;28;20889;-48
2022/03/21 00:15:10;;;;;;;11.67;9.77;;;15.30;29.90;;;;;;5031632;28;20494;-51
2022/03/21 00:17:48;;;;;;;10.57;9.40;;;15.30;29.10;;;;;;5029488;28;20497;-52
2022/03/21 00:20:27;;;;;;;;;;;;;;;;;;;;;
2022/03/21 00:22:53;;;;;;;14.60;11.30;;;15.40;29.80;;;;;;5026485;28;20935;-46
2022/03/21 00:25:19;;;;;;;14.90;9.73;;;15.50;29.40;;;;;;5023989;28;20822;-48
2022/03/21 00:27:45;;;;;;;10.50;9.40;;;15.70;29.60;;;;;;5034862;28;20485;-48
2022/03/21 00:30:10;;;;;;;11.67;9.90;;;15.80;29.70;;;;;;5031705;28;20275;-46
2022/03/21 00:32:37;;;;;;;11.73;10.30;;;15.90;29.50;;;;;;5035098;28;20708;-45
2022/03/21 00:35:08;;;;;;;12.40;9.27;;;15.90;29.20;;;;;;5029164;28;20531;-50
2022/03/21 00:37:35;;;;;;;12.77;10.30;;;15.80;29.10;;;;;;5028536;28;20565;-49
2022/03/21 00:40:01;;;;;;;11.50;10.30;;;15.70;29.30;;;;;;5029058;28;21011;-48
2022/03/21 00:42:26;;;;;;;11.30;9.57;;;15.70;29.60;;;;;;5029913;28;20509;-47
2022/03/21 00:44:54;;;;;;;12.03;10.43;;;15.80;29.70;;;;;;5028413;28;20288;-45
2022/03/21 00:47:20;;;;;;;12.87;10.00;;;15.80;29.60;;;;;;5033533;28;20225;-51
2022/03/21 00:49:48;;;;;;;12.90;11.00;;;15.90;29.60;;;;;;5028260;28;20482;-48
2022/03/21 00:52:14;;;;;;;13.13;11.20;;;15.90;29.50;;;;;;5042830;28;20488;-50
2022/03/21 00:54:39;;;;;;;14.10;10.80;;;15.90;29.50;;;;;;5028758;28;20471;-49
2022/03/21 00:57:05;;;;;;;12.43;11.13;;;15.90;29.80;;;;;;5030845;28;20615;-49
2022/03/21 00:59:31;;;;;;;12.80;11.30;;;15.90;29.80;;;;;;5034669;28;20201;-46
2022/03/21 01:01:56;;;;;;;11.60;10.50;;;15.90;29.90;;;;;;5036611;28;20247;-50
2022/03/21 01:04:22;;;;;;;12.93;10.40;;;15.80;29.90;;;;;;5028949;28;20193;-47
2022/03/21 01:06:47;;;;;;;11.80;10.60;;;15.80;30.00;;;;;;5026130;28;20204;-46
2022/03/21 01:09:17;;;;;;;14.70;10.83;;;15.70;30.20;;;;;;5027029;28;20250;-47
2022/03/21 01:11:43;;;;;;;10.60;9.50;;;15.70;30.40;;;;;;5024245;28;20193;-47
2022/03/21 01:14:10;;;;;;;13.20;9.97;;;15.60;30.00;;;;;;5023014;28;20465;-50
2022/03/21 01:16:36;;;;;;;13.43;10.50;;;15.50;30.00;;;;;;5028869;28;20436;-48
2022/03/21 01:19:01;;;;;;;14.30;10.43;;;15.50;30.20;;;;;;5023104;28;22292;-47
2022/03/21 01:21:29;;;;;;;12.00;10.33;;;15.50;30.70;;;;;;5022041;28;20439;-49
2022/03/21 01:23:55;;;;;;;11.80;10.03;;;15.50;31.00;;;;;;5027264;28;20679;-48
2022/03/21 01:26:21;;;;;;;11.60;10.40;;;15.50;30.70;;;;;;5024924;28;20531;-50
2022/03/21 01:28:46;;;;;;;13.43;10.30;;;15.40;30.90;;;;;;5028259;28;20193;-50
2022/03/21 01:31:12;;;;;;;10.33;9.30;;;15.40;31.40;;;;;;5031429;28;20564;-49
2022/03/21 01:33:38;;;;;;;14.23;9.70;;;15.30;31.50;;;;;;5029559;28;20686;-45
2022/03/21 01:36:05;;;;;;;10.90;9.50;;;15.40;31.20;;;;;;5027318;28;20181;-48
2022/03/21 01:38:30;;;;;;;11.30;9.70;;;15.40;31.10;;;;;;5026494;28;20208;-46
2022/03/21 01:40:56;;;;;;;13.80;10.30;;;15.40;31.30;;;;;;5031682;28;20794;-46
2022/03/21 01:43:22;;;;;;;11.40;10.20;;;15.40;31.20;;;;;;5026961;28;20193;-47
2022/03/21 01:45:47;;;;;;;12.93;9.20;;;15.40;31.10;;;;;;5025148;28;22040;-51
2022/03/21 01:48:13;;;;;;;12.83;9.87;;;15.30;31.00;;;;;;5033918;28;20220;-51
2022/03/21 01:50:40;;;;;;;9.83;8.90;;;15.30;31.30;;;;;;5032183;28;20217;-46
2022/03/21 01:55:50;;;;;;;11.50;10.30;;;15.30;31.40;;;;;;5028857;28;20454;-51
2022/03/21 01:58:16;;;;;;;11.50;10.30;;;15.20;31.20;;;;;;5022207;28;20819;-47
2022/03/21 02:00:43;;;;;;;9.70;8.70;;;15.20;31.40;;;;;;5021611;28;20484;-49
2022/03/21 02:03:09;;;;;;;12.27;9.30;;;15.10;31.50;;;;;;5025690;28;20454;-50
2022/03/21 02:05:37;;;;;;;10.40;9.30;;;15.20;32.10;;;;;;5022824;28;20943;-48
2022/03/21 02:08:03;;;;;;;11.90;9.70;;;15.20;31.60;;;;;;5022691;28;20197;-45
2022/03/21 02:10:30;;;;;;;11.60;9.83;;;15.10;31.20;;;;;;5032192;28;20576;-47
2022/03/21 02:12:56;;;;;;;12.20;9.50;;;15.10;31.20;;;;;;5030565;28;20934;-47
2022/03/21 02:15:21;;;;;;;13.10;9.87;;;15.10;31.30;;;;;;5028550;28;20431;-45
2022/03/21 02:17:49;;;;;;;13.67;11.20;;;15.00;31.80;;;;;;5024994;28;20286;-45
2022/03/21 02:20:18;;;;;;;15.30;9.83;;;15.00;31.60;;;;;;5028432;28;20342;-51
2022/03/21 02:22:58;;;;;;;10.83;9.73;;;15.00;31.30;;;;;;5032642;28;20738;-49
2022/03/21 02:25:31;;;;;;;11.50;9.20;;;14.90;31.40;;;;;;5023863;28;20446;-46
2022/03/21 02:28:00;;;;;;;12.27;10.30;;;14.60;32.00;;;;;;5022808;28;20455;-50
2022/03/21 02:30:27;;;;;;;11.80;10.00;;;14.60;32.70;;;;;;5019968;28;20645;-50
2022/03/21 02:32:55;;;;;;;13.20;9.77;;;14.70;32.80;;;;;;5021586;28;20436;-47
2022/03/21 02:35:22;;;;;;;11.83;9.90;;;14.60;32.40;;;;;;5025941;28;20458;-45
2022/03/21 02:37:49;;;;;;;13.10;11.10;;;14.60;32.00;;;;;;5023878;28;20448;-47
2022/03/21 02:40:16;;;;;;;12.43;10.57;;;14.50;32.30;;;;;;5026447;28;20943;-49
2022/03/21 02:42:42;;;;;;;15.47;10.63;;;14.50;32.40;;;;;;5027361;28;20458;-48
2022/03/21 02:45:08;;;;;;;12.40;9.90;;;14.50;33.30;;;;;;5026462;28;20447;-46
2022/03/21 02:47:34;;;;;;;13.53;10.37;;;14.40;32.80;;;;;;5024290;28;20440;-49
2022/03/21 02:50:01;;;;;;;16.20;10.67;;;14.30;33.00;;;;;;5034996;28;20533;-48
2022/03/21 02:52:29;;;;;;;15.60;10.10;;;14.20;33.20;;;;;;5032522;28;20251;-48
2022/03/21 02:54:55;;;;;;;12.60;9.83;;;14.00;33.90;;;;;;5026013;28;20580;-46
2022/03/21 02:57:21;;;;;;;13.07;9.67;;;14.00;33.90;;;;;;5025466;28;20444;-48
2022/03/21 02:59:46;;;;;;;13.60;9.40;;;14.00;34.10;;;;;;5022284;28;20554;-50
2022/03/21 03:02:12;;;;;;;13.03;9.70;;;14.00;34.20;;;;;;5025921;28;20201;-51
2022/03/21 03:04:37;;;;;;;14.43;10.43;;;14.00;34.10;;;;;;5027134;28;20189;-45
2022/03/21 03:07:03;;;;;;;11.20;10.00;;;14.00;34.10;;;;;;5023934;28;20208;-46
2022/03/21 03:09:29;;;;;;;13.07;9.90;;;13.90;34.00;;;;;;5027078;28;20185;-49
2022/03/21 03:11:55;;;;;;;11.53;10.33;;;13.90;34.60;;;;;;5031337;28;20201;-46
2022/03/21 03:14:21;;;;;;;11.40;10.20;;;13.80;34.40;;;;;;5031266;28;20201;-47
2022/03/21 03:16:47;;;;;;;12.13;10.83;;;13.70;34.50;;;;;;5027626;28;20832;-46
2022/03/21 03:19:12;;;;;;;10.97;9.87;;;13.60;34.90;;;;;;5027423;28;20201;-49
2022/03/21 03:21:41;;;;;;;11.83;10.20;;;13.50;35.10;;;;;;5031401;28;20562;-49
2022/03/21 03:24:09;;;;;;;11.07;9.30;;;13.50;35.00;;;;;;5028246;28;20275;-49
2022/03/21 03:26:35;;;;;;;11.77;9.10;;;13.40;35.10;;;;;;5022247;28;20435;-47
2022/03/21 03:29:00;;;;;;;9.03;8.10;;;13.30;35.00;;;;;;5028111;28;20494;-48
2022/03/21 03:31:26;;;;;;;11.27;9.80;;;13.20;35.20;;;;;;5024773;28;20278;-46
2022/03/21 03:33:52;;;;;;;13.83;9.80;;;13.00;35.80;;;;;;5028200;28;20200;-45
2022/03/21 03:36:18;;;;;;;11.77;8.87;;;12.70;36.20;;;;;;5027063;28;20448;-44
2022/03/21 03:38:45;;;;;;;10.47;8.73;;;12.70;36.50;;;;;;5022931;28;20197;-45
2022/03/21 03:41:11;;;;;;;14.40;9.87;;;12.80;36.40;;;;;;5021703;28;20197;-47
2022/03/21 03:43:38;;;;;;;11.80;9.27;;;12.70;36.30;;;;;;5023487;28;20440;-44
2022/03/21 03:46:04;;;;;;;11.17;9.00;;;12.70;36.30;;;;;;5030545;28;20272;-46
2022/03/21 03:48:30;;;;;;;14.27;9.07;;;12.60;36.80;;;;;;5031211;28;20518;-44
2022/03/21 03:50:56;;;;;;;12.50;9.70;;;12.70;36.90;;;;;;5031912;28;20498;-47
2022/03/21 03:53:22;;;;;;;12.50;10.20;;;12.70;36.80;;;;;;5032449;28;20524;-45
2022/03/21 03:55:47;;;;;;;11.53;9.87;;;12.60;36.90;;;;;;5032779;28;20250;-46
2022/03/21 03:58:13;;;;;;;11.63;9.27;;;12.60;37.10;;;;;;5032516;28;20205;-45
2022/03/21 04:00:39;;;;;;;12.33;9.90;;;12.50;37.20;;;;;;5033399;28;20687;-46
2022/03/21 04:05:49;;;;;;;11.30;9.50;;;12.20;37.40;;;;;;5030059;28;20228;-48
2022/03/21 04:08:15;;;;;;;13.47;9.77;;;12.20;37.50;;;;;;5029098;28;20491;-46
2022/03/21 04:10:41;;;;;;;11.13;9.80;;;12.20;37.50;;;;;;5028554;28;20248;-44
2022/03/21 04:13:07;;;;;;;10.33;9.20;;;12.30;37.30;;;;;;5028470;28;20943;-45
2022/03/21 04:15:32;;;;;;;11.93;9.83;;;12.30;37.20;;;;;;5036735;28;20580;-45
2022/03/21 04:18:00;;;;;;;11.93;8.60;;;12.20;37.20;;;;;;5030042;28;20204;-47
2022/03/21 04:20:25;;;;;;;11.07;8.87;;;12.00;37.30;;;;;;5030603;28;20201;-46
2022/03/21 04:22:51;;;;;;;10.27;8.70;;;11.90;37.60;;;;;;5032092;28;20897;-46
2022/03/21 04:25:17;;;;;;;10.70;8.90;;;11.70;37.80;;;;;;5039791;28;20447;-48
2022/03/21 04:27:43;;;;;;;10.53;8.90;;;11.70;38.60;;;;;;5034866;28;21027;-45
2022/03/21 04:30:09;;;;;;;11.90;9.17;;;11.70;38.20;;;;;;5031034;28;21358;-44
2022/03/21 04:32:35;;;;;;;11.87;9.17;;;11.60;38.10;;;;;;5027948;28;20240;-45
2022/03/21 04:35:00;;;;;;;11.50;9.20;;;11.50;38.80;;;;;;5031925;28;20432;-46
2022/03/21 04:37:26;;;;;;;12.23;9.57;;;11.50;38.10;;;;;;5036916;28;20198;-47
2022/03/21 04:39:53;;;;;;;10.90;9.53;;;11.30;38.10;;;;;;5030081;28;20634;-45
2022/03/21 04:42:19;;;;;;;9.57;8.43;;;11.00;38.40;;;;;;5029692;28;20571;-46
2022/03/21 04:44:46;;;;;;;17.90;9.50;;;10.60;38.90;;;;;;5031523;28;20436;-49
2022/03/21 04:47:12;;;;;;;10.63;8.63;;;10.50;39.60;;;;;;5029486;28;20193;-45
2022/03/21 04:49:37;;;;;;;12.73;8.80;;;10.50;39.60;;;;;;5030492;28;20497;-44
2022/03/21 04:52:04;;;;;;;11.80;9.33;;;10.60;39.50;;;;;;5022492;28;20200;-49
2022/03/21 04:54:29;;;;;;;9.70;8.13;;;10.50;39.30;;;;;;5028445;28;20200;-46
2022/03/21 04:56:55;;;;;;;12.10;7.77;;;10.40;39.40;;;;;;5025245;28;20456;-50
2022/03/21 04:59:21;;;;;;;12.80;9.13;;;10.20;39.60;;;;;;5032041;28;20201;-51
2022/03/21 05:01:47;;;;;;;10.60;8.60;;;10.20;39.90;;;;;;5024199;28;20439;-50
2022/03/21 05:04:13;;;;;;;13.17;9.23;;;10.40;39.50;;;;;;5026456;28;20447;-49
2022/03/21 05:06:39;;;;;;;10.33;8.20;;;10.50;39.60;;;;;;5024144;28;20538;-49
2022/03/21 05:09:05;;;;;;;9.80;8.53;;;10.50;39.20;;;;;;5027630;28;20911;-49
2022/03/21 05:11:31;;;;;;;9.90;8.60;;;10.50;39.30;;;;;;5025269;28;20484;-50
2022/03/21 05:13:57;;;;;;;12.70;9.20;;;10.80;39.00;;;;;;5021701;28;20452;-50
2022/03/21 05:16:23;;;;;;;11.83;9.20;;;10.70;38.50;;;;;;5024518;28;20193;-48
2022/03/21 05:18:49;;;;;;;10.97;8.10;;;10.50;39.00;;;;;;5026174;28;20246;-48
2022/03/21 05:21:16;;;;;;;10.70;8.60;;;10.30;39.70;;;;;;5028469;28;20305;-49
2022/03/21 05:31:54;;;;;;;11.47;8.70;;;10.30;40.00;;;;;;5026948;28;20624;-51
2022/03/21 05:37:04;;;;;;;11.03;8.23;;;10.50;39.00;;;;;;5023147;28;20212;-46
2022/03/21 05:39:29;;;;;;;11.73;9.13;;;10.20;39.30;;;;;;5038539;28;20443;-50
2022/03/21 05:41:55;;;;;;;9.63;8.43;;;10.20;39.60;;;;;;5029575;28;20436;-49
2022/03/21 05:44:20;;;;;;;11.53;8.57;;;10.10;39.90;;;;;;5028488;28;20204;-49
2022/03/21 05:46:46;;;;;;;13.60;9.30;;;10.00;39.90;;;;;;5024079;28;20275;-47
2022/03/21 05:49:12;;;;;;;11.13;9.43;;;10.10;40.30;;;;;;5026308;28;20224;-47
2022/03/21 05:51:40;;;;;;;10.30;8.20;;;9.90;41.10;;;;;;5025746;28;20700;-51
2022/03/21 05:54:12;;;;;;;10.43;8.37;;;9.80;41.20;;;;;;5023987;28;20225;-50
2022/03/21 05:56:39;;;;;;;9.50;8.50;;;9.60;41.70;;;;;;5022838;28;20480;-47
2022/03/21 06:01:53;;;;;;;11.03;8.80;;;9.70;42.40;;;;;;5032933;28;20579;-46
2022/03/21 06:04:19;;;;;;;13.00;9.10;;;9.60;42.20;;;;;;5023835;28;20447;-50
2022/03/21 06:06:45;;;;;;;9.40;8.40;;;9.50;42.40;;;;;;5023888;28;20432;-48
2022/03/21 06:09:12;;;;;;;11.70;8.73;;;9.70;42.80;;;;;;5033921;28;20474;-48
2022/03/21 06:11:38;;;;;;;11.70;9.50;;;9.80;42.30;;;;;;5029220;28;20495;-46
2022/03/21 06:14:05;;;;;;;14.90;8.90;;;9.80;41.60;;;;;;5025553;28;20772;-47
2022/03/21 06:16:31;;;;;;;12.40;8.30;;;9.90;41.60;;;;;;5026419;28;20217;-46
2022/03/21 06:19:00;;;;;;;10.07;8.50;;;9.90;41.00;;;;;;5029698;28;20523;-48
2022/03/21 06:21:26;;;;;;;12.00;8.90;;;10.30;39.90;;;;;;5031573;28;20439;-49
2022/03/21 06:23:52;;;;;;;11.40;9.27;;;10.20;39.00;;;;;;5027056;28;21305;-48
2022/03/21 06:26:18;;;;;;;11.20;9.03;;;10.20;39.00;;;;;;5028609;28;20941;-51
2022/03/21 06:28:43;;;;;;;10.30;9.03;;;10.30;39.10;;;;;;5029552;28;20433;-46
2022/03/21 06:31:09;;;;;;;12.97;9.13;;;10.50;38.80;;;;;;5026221;28;20766;-52
2022/03/21 06:33:34;;;;;;;10.00;8.77;;;10.70;38.20;;;;;;5026371;28;22159;-51
2022/03/21 06:36:02;;;;;;;14.93;9.73;;;10.80;38.00;;;;;;5027223;28;20192;-47
2022/03/21 06:38:28;;;;;;;12.90;9.80;;;10.90;37.90;;;;;;5024887;28;20676;-48
2022/03/21 06:40:55;;;;;;;12.87;9.87;;;10.90;37.70;;;;;;5024273;28;20443;-47
2022/03/21 06:43:22;;;;;;;13.10;9.07;;;10.90;37.60;;;;;;5020643;28;20923;-49
2022/03/21 06:45:51;;;;;;;11.60;9.77;;;10.90;37.70;;;;;;5028669;28;20440;-48
2022/03/21 06:48:18;;;;;;;11.63;9.50;;;11.00;37.50;;;;;;5029624;28;20440;-53
2022/03/21 06:50:46;;;;;;;11.33;9.00;;;11.10;37.40;;;;;;5028479;28;20837;-53
2022/03/21 06:53:12;;;;;;;11.40;9.20;;;11.30;37.30;;;;;;5029272;28;20882;-48
2022/03/21 06:55:38;;;;;;;9.03;7.80;;;11.40;36.90;;;;;;5029281;28;20504;-52
2022/03/21 06:58:03;;;;;;;11.17;10.00;;;11.70;36.80;;;;;;5029987;28;20957;-46
2022/03/21 07:00:30;;;;;;;11.07;9.57;;;11.70;36.60;;;;;;5028601;28;20747;-49
2022/03/21 07:02:56;;;;;;;13.20;9.70;;;11.80;36.30;;;;;;5029482;28;20193;-49
2022/03/21 07:05:21;;;;;;;12.77;9.30;;;11.70;36.50;;;;;;5029270;28;20438;-52
2022/03/21 07:07:47;;;;;;;10.20;9.10;;;11.70;36.40;;;;;;5029427;28;20640;-47
2022/03/21 07:10:13;;;;;;;12.13;9.13;;;11.60;36.40;;;;;;5028693;28;20237;-51
2022/03/21 07:12:39;;;;;;;11.10;8.90;;;11.70;36.60;;;;;;5028843;28;20247;-49
2022/03/21 07:15:06;;;;;;;10.63;8.80;;;11.90;36.40;;;;;;5028773;28;20216;-52
2022/03/21 07:17:31;;;;;;;11.97;9.47;;;11.90;36.00;;;;;;5028903;28;20466;-51
2022/03/21 07:19:57;;;;;;;11.83;10.00;;;11.80;35.80;;;;;;5024549;28;20949;-47
2022/03/21 07:22:23;;;;;;;13.27;10.03;;;12.00;36.60;;;;;;5027331;28;20193;-48
2022/03/21 07:24:49;;;;;;;11.07;9.10;;;12.00;36.00;;;;;;5044716;28;20185;-48
2022/03/21 07:27:15;;;;;;;12.20;10.10;;;12.00;36.00;;;;;;5029558;28;20676;-50
2022/03/21 07:29:41;;;;;;;11.87;9.90;;;12.20;36.00;;;;;;5027399;28;20475;-50
2022/03/21 07:32:07;;;;;;;11.43;9.33;;;12.30;35.60;;;;;;5027533;28;20947;-51
2022/03/21 07:34:33;;;;;;;10.10;9.10;;;12.50;35.00;;;;;;5028240;28;20259;-51
2022/03/21 07:36:59;;;;;;;10.17;9.17;;;12.50;34.40;;;;;;5027309;28;20428;-50
2022/03/21 07:39:24;;;;;;;10.60;9.40;;;12.60;34.60;;;;;;5030114;28;20499;-48
2022/03/21 07:41:50;;;;;;;11.03;9.90;;;12.40;33.90;;;;;;5028947;28;20197;-51
2022/03/21 07:47:17;;;;;;;13.60;9.60;;;12.20;34.30;;;;;;5034998;28;20612;-48
2022/03/21 07:49:46;;;;;;;13.60;9.93;;;12.40;34.00;;;;;;5027826;28;20851;-49
2022/03/21 07:52:12;;;;;;;13.00;9.53;;;12.60;33.40;;;;;;5030602;28;20981;-49
2022/03/21 07:54:39;;;;;;;10.63;9.53;;;12.80;33.40;;;;;;5029419;28;20539;-51
2022/03/21 07:57:05;;;;;;;9.43;8.50;;;12.80;32.80;;;;;;5029113;28;21243;-51
2022/03/21 07:59:31;;;;;;;13.57;11.10;;;12.80;32.90;;;;;;5028617;28;20435;-48
2022/03/21 08:01:58;;;;;;;12.67;9.53;;;12.80;33.20;;;;;;5030149;28;20625;-51
2022/03/21 08:04:24;;;;;;;10.43;9.33;;;13.20;33.00;;;;;;5028774;28;20502;-47
2022/03/21 08:06:53;;;;;;;14.00;10.53;;;13.50;32.20;;;;;;5028060;28;20466;-49
2022/03/21 08:09:18;;;;;;;12.67;10.23;;;13.80;32.00;;;;;;5028640;28;20212;-47
2022/03/21 08:11:45;;;;;;;15.10;10.17;;;14.00;31.40;;;;;;5029837;28;20487;-49
2022/03/21 08:14:11;;;;;;;12.87;10.53;;;14.40;30.90;;;;;;5029361;28;20609;-47
2022/03/21 08:16:37;;;;;;;12.57;9.97;;;14.60;30.90;;;;;;5012223;28;20446;-50
2022/03/21 08:19:02;;;;;;;12.87;9.77;;;14.70;30.50;;;;;;5028725;28;20199;-50
2022/03/21 08:21:28;;;;;;;11.33;9.97;;;14.90;30.50;;;;;;5029369;28;20229;-48
2022/03/21 08:23:54;;;;;;;11.27;10.07;;;15.00;30.00;;;;;;5028998;28;20193;-48
2022/03/21 08:26:19;;;;;;;12.00;9.87;;;15.00;29.80;;;;;;5029572;28;20196;-49
2022/03/21 08:28:45;;;;;;;10.37;9.33;;;15.20;30.10;;;;;;5028418;28;20269;-50
2022/03/21 08:31:15;;;;;;;10.47;9.40;;;15.50;29.70;;;;;;5032176;28;20247;-50
2022/03/21 08:33:41;;;;;;;12.70;10.53;;;15.60;29.60;;;;;;5015872;28;20485;-52
2022/03/21 08:36:08;;;;;;;13.43;10.23;;;15.70;29.70;;;;;;5031491;28;20440;-50
2022/03/21 08:38:34;;;;;;;11.57;9.53;;;16.00;29.60;;;;;;5032347;28;20439;-48
2022/03/21 08:40:59;;;;;;;13.40;10.80;;;15.90;29.30;;;;;;5032811;28;20511;-46
2022/03/21 08:43:28;;;;;;;11.17;9.87;;;15.90;29.50;;;;;;5033013;28;20242;-50
2022/03/21 08:45:57;;;;;;;12.17;10.10;;;16.20;29.60;;;;;;5032943;28;21120;-49
2022/03/21 08:49:23;;;;;;;11.70;10.07;;;16.30;29.50;;;;;;5032898;28;20942;-50
2022/03/21 08:51:12;;;;;;;11.10;10.00;;;16.00;29.20;;;;;;5031928;28;20487;-50
2022/03/21 08:53:41;;;;;;;13.80;9.73;;;16.30;29.90;;;;;;5032376;28;20432;-52
2022/03/21 08:56:06;;;;;;;12.97;9.73;;;16.60;29.60;;;;;;5032911;28;20428;-51
2022/03/21 08:58:35;;;;;;;12.23;10.40;;;16.90;29.40;;;;;;5031961;28;20447;-52
2022/03/21 09:01:01;;;;;;;13.43;11.50;;;17.00;29.10;;;;;;5022118;28;20225;-47
2022/03/21 09:03:27;;;;;;;12.30;10.70;;;17.20;28.90;;;;;;5029535;28;20462;-50
2022/03/21 09:05:52;;;;;;;12.67;10.07;;;17.40;29.00;;;;;;5029046;28;20657;-52
2022/03/21 09:08:18;;;;;;;16.07;10.73;;;17.50;28.80;;;;;;5031960;28;20182;-47
2022/03/21 09:10:44;;;;;;;14.87;11.47;;;17.50;28.90;;;;;;5032057;28;20257;-52
2022/03/21 09:13:09;;;;;;;14.13;11.53;;;17.60;28.70;;;;;;5032224;28;20314;-47
2022/03/21 09:15:35;;;;;;;12.40;10.73;;;17.80;28.40;;;;;;5014405;28;20193;-51
2022/03/21 09:18:02;;;;;;;12.40;11.20;;;17.90;28.60;;;;;;5031271;28;20193;-48
2022/03/21 09:20:27;;;;;;;14.23;11.13;;;18.00;29.00;;;;;;5031548;28;20288;-53
2022/03/21 09:22:53;;;;;;;11.13;9.90;;;18.20;28.20;;;;;;5032257;28;20531;-53
2022/03/21 09:25:19;;;;;;;14.83;10.57;;;18.40;28.20;;;;;;5031553;28;20201;-47
2022/03/21 09:27:44;;;;;;;14.47;10.93;;;18.40;28.10;;;;;;5031670;28;20201;-46
2022/03/21 09:30:11;;;;;;;13.37;11.10;;;18.60;27.60;;;;;;5029621;28;20323;-52
2022/03/21 09:32:37;;;;;;;12.33;11.13;;;18.80;27.40;;;;;;5032269;28;20193;-49
2022/03/21 09:35:05;;;;;;;13.70;11.10;;;18.90;27.10;;;;;;5028784;28;20486;-47
2022/03/21 09:37:31;;;;;;;14.87;12.07;;;19.00;27.50;;;;;;5030405;28;20566;-52
2022/03/21 09:39:57;;;;;;;12.40;11.20;;;19.10;27.80;;;;;;5036395;28;20432;-47
2022/03/21 09:42:24;;;;;;;13.27;11.90;;;19.30;26.90;;;;;;5040669;28;20431;-50
2022/03/21 09:44:53;;;;;;;13.20;10.67;;;19.40;26.80;;;;;;5028228;28;20459;-49
2022/03/21 09:50:09;;;;;;;14.13;11.33;;;19.60;26.90;;;;;;5030849;28;20499;-48
2022/03/21 09:52:35;;;;;;;17.07;11.17;;;19.70;26.70;;;;;;5030897;28;20439;-48
2022/03/21 09:55:02;;;;;;;11.70;10.50;;;19.80;27.00;;;;;;5030221;28;20443;-53
2022/03/21 09:57:28;;;;;;;13.83;11.93;;;19.40;26.50;;;;;;5029914;28;20668;-51
2022/03/21 09:59:58;;;;;;;12.50;11.20;;;19.50;26.80;;;;;;5028503;28;20472;-51
2022/03/21 10:02:24;;;;;;;15.40;12.17;;;19.70;25.80;;;;;;5030662;28;20193;-53
2022/03/21 10:04:50;;;;;;;16.20;12.43;;;19.40;26.60;;;;;;5029008;28;20444;-52
2022/03/21 10:07:24;;;;;;;14.00;12.50;;;19.30;26.20;;;;;;5034569;28;20458;-53
2022/03/21 10:10:12;;;;;;;13.10;11.73;;;19.60;26.90;;;;;;5029006;28;20540;-48
2022/03/21 10:12:39;;;;;;;14.13;12.40;;;19.80;26.90;;;;;;5030146;28;20548;-47
2022/03/21 10:15:06;;;;;;;14.93;13.20;;;20.00;26.20;;;;;;5032527;28;20424;-46
2022/03/21 10:17:31;;;;;;;13.83;12.43;;;20.10;26.10;;;;;;5028590;28;20467;-51
2022/03/21 10:19:58;;;;;;;14.57;12.27;;;20.20;26.60;;;;;;5028106;28;21096;-47
2022/03/21 10:22:43;;;;;;;13.90;12.40;;;20.30;26.00;;;;;;5029270;28;21576;-47
2022/03/21 10:25:15;;;;;;;15.03;11.77;;;20.40;25.70;;;;;;5025077;28;20448;-49
2022/03/21 10:27:43;;;;;;;14.57;12.60;;;20.50;26.10;;;;;;5029319;28;20436;-47
2022/03/21 10:30:18;;;;;;;14.90;12.73;;;20.40;25.60;;;;;;5027175;28;20490;-47
2022/03/21 10:32:46;;;;;;;14.90;13.23;;;20.20;26.10;;;;;;5026680;28;20963;-50
2022/03/21 10:35:17;;;;;;;17.03;13.00;;;20.10;26.30;;;;;;5030126;28;20441;-47
2022/03/21 10:37:49;;;;;;;13.63;12.07;;;20.30;26.90;;;;;;5032835;28;20444;-51
2022/03/21 10:40:19;;;;;;;16.23;12.83;;;20.40;27.60;;;;;;5030533;28;20444;-49
2022/03/21 10:42:57;;;;;;;13.70;11.73;;;20.70;27.00;;;;;;5028056;28;20444;-48
2022/03/21 10:45:24;;;;;;;21.87;13.03;;;20.80;26.40;;;;;;5029208;28;20809;-48
2022/03/21 10:47:51;;;;;;;16.50;12.57;;;21.00;26.40;;;;;;5028628;28;20474;-51
2022/03/21 10:50:27;;;;;;;13.30;12.00;;;21.20;26.50;;;;;;5028897;28;20492;-46
2022/03/21 10:53:18;;;;;;;15.27;12.80;;;21.30;26.20;;;;;;5031124;28;20487;-52
2022/03/21 10:55:46;;;;;;;14.07;12.67;;;21.40;26.00;;;;;;5025910;28;20570;-48
2022/03/21 10:58:15;;;;;;;16.10;13.20;;;21.40;25.90;;;;;;5026027;28;20439;-48
2022/03/21 11:00:41;;;;;;;14.20;12.80;;;21.40;26.10;;;;;;5027839;28;20498;-53
2022/03/21 11:03:13;;;;;;;15.30;13.53;;;21.50;26.30;;;;;;5031675;28;20440;-49
2022/03/21 11:05:41;;;;;;;13.60;12.17;;;21.50;26.60;;;;;;5025234;28;20444;-47
2022/03/21 11:08:09;;;;;;;14.00;12.60;;;21.50;26.40;;;;;;5024352;28;20517;-49
2022/03/21 11:10:35;;;;;;;15.73;14.13;;;21.40;26.40;;;;;;5033075;28;20488;-51
2022/03/21 11:13:03;;;;;;;15.10;13.60;;;21.60;26.50;;;;;;5027708;28;20454;-47
2022/03/21 11:15:30;;;;;;;12.73;11.50;;;21.50;26.40;;;;;;5027652;28;20478;-51
2022/03/21 11:17:57;;;;;;;15.03;13.43;;;21.60;26.60;;;;;;5028535;28;20482;-49
2022/03/21 11:20:23;;;;;;;15.73;14.23;;;21.20;25.80;;;;;;5029213;28;20432;-46
2022/03/21 11:22:49;;;;;;;15.03;13.40;;;20.80;27.20;;;;;;5027408;28;20432;-52
2022/03/21 11:25:21;;;;;;;13.93;12.50;;;20.80;27.30;;;;;;5028700;28;20927;-53
2022/03/21 11:28:05;;;;;;;14.60;13.10;;;21.20;27.40;;;;;;5029615;28;20193;-48
2022/03/21 11:30:56;;;;;;;14.73;13.33;;;21.50;26.90;;;;;;5033717;28;20567;-52
2022/03/21 11:33:27;;;;;;;14.47;12.87;;;21.80;26.50;;;;;;5028761;28;20518;-48
2022/03/21 11:36:03;;;;;;;15.37;13.10;;;21.90;26.10;;;;;;5028174;28;20539;-46
2022/03/21 11:38:45;;;;;;;13.70;12.20;;;22.00;26.10;;;;;;5028924;28;20911;-49
2022/03/21 11:41:15;;;;;;;17.33;14.10;;;22.00;26.20;;;;;;5031089;28;20485;-50
2022/03/21 11:43:43;;;;;;;15.17;13.57;;;21.90;26.00;;;;;;5028066;28;20531;-47
2022/03/21 11:46:31;;;;;;;15.00;13.10;;;22.10;26.50;;;;;;5029060;28;20432;-51
2022/03/21 11:48:57;;;;;;;16.37;13.30;;;22.60;25.80;;;;;;5027870;28;20530;-49
2022/03/21 11:51:26;;;;;;;14.47;12.97;;;22.80;26.20;;;;;;5027948;28;20475;-51
2022/03/21 11:53:53;;;;;;;17.30;13.20;;;22.90;26.00;;;;;;5010626;28;20814;-47
2022/03/21 11:56:41;;;;;;;13.77;12.57;;;23.10;25.80;;;;;;5026685;28;20511;-52
2022/03/21 11:59:07;;;;;;;14.23;12.83;;;23.50;26.10;;;;;;5027617;28;20469;-50
2022/03/21 12:01:34;;;;;;;15.57;12.20;;;23.70;25.10;;;;;;5029669;28;20468;-47
2022/03/21 12:04:24;;;;;;;15.40;13.20;;;24.00;26.20;;;;;;5031168;28;20454;-52
2022/03/21 12:06:51;;;;;;;12.97;11.67;;;23.90;24.60;;;;;;5027847;28;20526;-47
2022/03/21 12:09:17;;;;;;;15.00;12.73;;;24.10;26.10;;;;;;5032525;28;20447;-48
2022/03/21 12:11:46;;;;;;;17.87;14.37;;;24.40;25.00;;;;;;5032851;28;20975;-46
2022/03/21 12:14:25;;;;;;;13.57;12.17;;;24.40;24.40;;;;;;5031842;28;20204;-49
2022/03/21 12:17:03;;;;;;;12.50;11.30;;;24.60;24.90;;;;;;5029502;28;20454;-49
2022/03/21 12:20:03;;;;;;;13.93;12.53;;;24.80;25.50;;;;;;5031398;28;20455;-51
2022/03/21 12:22:38;;;;;;;14.60;13.30;;;25.10;24.70;;;;;;5032593;28;20958;-50
2022/03/21 12:25:17;;;;;;;12.43;11.17;;;25.20;23.50;;;;;;5032137;28;20439;-52
2022/03/21 12:28:03;;;;;;;14.10;12.30;;;25.20;25.00;;;;;;5031896;28;20438;-49
2022/03/21 12:30:32;;;;;;;13.70;12.37;;;25.40;23.80;;;;;;5021588;28;20836;-51
2022/03/21 12:33:05;;;;;;;12.93;11.47;;;25.60;23.80;;;;;;5040060;28;20946;-51
2022/03/21 12:35:40;;;;;;;14.43;13.03;;;25.70;23.30;;;;;;5038773;28;20523;-50
2022/03/21 12:38:16;;;;;;;13.07;11.87;;;25.70;23.50;;;;;;5032107;28;20536;-50
2022/03/21 12:40:51;;;;;;;12.67;11.27;;;25.40;22.70;;;;;;5029729;28;20493;-53
2022/03/21 12:43:22;;;;;;;13.97;12.57;;;25.10;23.60;;;;;;5028528;28;20577;-49
2022/03/21 12:45:49;;;;;;;16.13;13.47;;;25.40;23.90;;;;;;5031141;28;20455;-51
2022/03/21 12:48:19;;;;;;;19.70;14.53;;;25.40;22.00;;;;;;5027260;28;20522;-48
2022/03/21 12:50:49;;;;;;;12.33;10.93;;;25.10;22.50;;;;;;5032001;28;20502;-48
2022/03/21 12:53:18;;;;;;;14.20;12.50;;;25.30;23.50;;;;;;5031898;28;20439;-52
2022/03/21 12:56:05;;;;;;;15.20;12.13;;;25.30;22.60;;;;;;5033751;28;20952;-49
2022/03/21 12:58:30;;;;;;;13.63;12.20;;;25.30;23.00;;;;;;5031046;28;20463;-51
2022/03/21 13:01:00;;;;;;;17.33;11.50;;;25.40;23.60;;;;;;5030567;28;20967;-47